sensor_id;sensor_type;location;lat;lon;timestamp;temperature;humidity
7998;DHT22;4044;49.814;7.828;2023-03-24T00:00:19;13.00;99.90
7998;DHT22;4044;49.814;7.828;2023-03-24T00:02:46;13.00;99.90
7998;DHT22;4044;49.814;7.828;2023-03-24T00:05:18;13.10;99.90
7998;DHT22;4044;49.814;7.828;2023-03-24T00:07:44;13.10;99.90
7998;DHT22;4044;49.814;7.828;2023-03-24T00:10:15;13.00;99.90
7998;DHT22;4044;49.814;7.828;2023-03-24T00:12:42;13.00;99.90
7998;DHT22;4044;49.814;7.828;2023-03-24T00:15:12;12.80;99.90
7998;DHT22;4044;49.814;7.828;2023-03-24T00:17:38;12.70;99.90
7998;DHT22;4044;49.814;7.828;2023-03-24T00:20:06;12.60;99.90
7998;DHT22;4044;49.814;7.828;2023-03-24T00:22:33;12.50;99.90
7998;DHT22;4044;49.814;7.828;2023-03-24T00:24:59;12.40;99.90
7998;DHT22;4044;49.814;7.828;2023-03-24T00:27:29;12.30;99.90
7998;DHT22;4044;49.814;7.828;2023-03-24T00:29:54;12.20;99.90
7998;DHT22;4044;49.814;7.828;2023-03-24T00:32:23;12.10;99.90
7998;DHT22;4044;49.814;7.828;2023-03-24T00:34:49;12.00;99.90
7998;DHT22;4044;49.814;7.828;2023-03-24T00:37:14;12.00;99.90
7998;DHT22;4044;49.814;7.828;2023-03-24T00:39:41;11.90;99.90
7998;DHT22;4044;49.814;7.828;2023-03-24T00:42:06;12.00;99.90
7998;DHT22;4044;49.814;7.828;2023-03-24T00:44:32;11.90;99.90
7998;DHT22;4044;49.814;7.828;2023-03-24T00:46:58;11.80;99.90
7998;DHT22;4044;49.814;7.828;2023-03-24T00:49:26;11.80;99.90
7998;DHT22;4044;49.814;7.828;2023-03-24T00:52:14;11.80;99.90
7998;DHT22;4044;49.814;7.828;2023-03-24T00:54:43;11.80;99.90
7998;DHT22;4044;49.814;7.828;2023-03-24T00:57:10;11.80;99.90
7998;DHT22;4044;49.814;7.828;2023-03-24T00:59:37;11.70;99.90
7998;DHT22;4044;49.814;7.828;2023-03-24T01:02:10;11.70;99.90
7998;DHT22;4044;49.814;7.828;2023-03-24T01:04:37;11.70;99.90
7998;DHT22;4044;49.814;7.828;2023-03-24T01:07:04;11.70;99.90
7998;DHT22;4044;49.814;7.828;2023-03-24T01:09:30;11.80;99.90
7998;DHT22;4044;49.814;7.828;2023-03-24T01:11:56;11.80;99.90
7998;DHT22;4044;49.814;7.828;2023-03-24T01:14:21;11.80;99.90
7998;DHT22;4044;49.814;7.828;2023-03-24T01:16:47;11.90;99.90
7998;DHT22;4044;49.814;7.828;2023-03-24T01:19:12;12.00;99.90
7998;DHT22;4044;49.814;7.828;2023-03-24T01:21:39;12.00;99.90
7998;DHT22;4044;49.814;7.828;2023-03-24T01:24:06;12.10;99.90
7998;DHT22;4044;49.814;7.828;2023-03-24T01:26:32;12.10;99.90
7998;DHT22;4044;49.814;7.828;2023-03-24T01:28:58;12.00;99.90
7998;DHT22;4044;49.814;7.828;2023-03-24T01:31:23;12.10;99.90
7998;DHT22;4044;49.814;7.828;2023-03-24T01:33:49;12.10;99.90
7998;DHT22;4044;49.814;7.828;2023-03-24T01:36:15;12.20;99.90
7998;DHT22;4044;49.814;7.828;2023-03-24T01:38:40;12.30;99.90
7998;DHT22;4044;49.814;7.828;2023-03-24T01:41:06;12.40;99.90
7998;DHT22;4044;49.814;7.828;2023-03-24T01:43:33;12.40;99.90
7998;DHT22;4044;49.814;7.828;2023-03-24T01:51:36;12.60;99.90
7998;DHT22;4044;49.814;7.828;2023-03-24T01:54:25;12.70;99.90
7998;DHT22;4044;49.814;7.828;2023-03-24T01:59:41;12.80;99.90
7998;DHT22;4044;49.814;7.828;2023-03-24T02:02:08;12.80;99.90
7998;DHT22;4044;49.814;7.828;2023-03-24T02:04:41;12.80;99.90
7998;DHT22;4044;49.814;7.828;2023-03-24T02:09:52;12.80;99.90
7998;DHT22;4044;49.814;7.828;2023-03-24T02:12:17;12.70;99.90
7998;DHT22;4044;49.814;7.828;2023-03-24T02:14:43;12.70;99.90
7998;DHT22;4044;49.814;7.828;2023-03-24T02:19:58;12.50;99.90
7998;DHT22;4044;49.814;7.828;2023-03-24T02:22:40;12.50;99.90
7998;DHT22;4044;49.814;7.828;2023-03-24T02:28:07;11.90;99.90
7998;DHT22;4044;49.814;7.828;2023-03-24T02:33:31;11.40;99.90
7998;DHT22;4044;49.814;7.828;2023-03-24T02:45:17;11.30;99.90
7998;DHT22;4044;49.814;7.828;2023-03-24T02:50:40;11.10;99.90
7998;DHT22;4044;49.814;7.828;2023-03-24T02:53:13;11.10;99.90
7998;DHT22;4044;49.814;7.828;2023-03-24T02:55:45;11.20;99.90
7998;DHT22;4044;49.814;7.828;2023-03-24T02:58:21;11.30;99.90
7998;DHT22;4044;49.814;7.828;2023-03-24T03:00:56;11.30;99.90
7998;DHT22;4044;49.814;7.828;2023-03-24T03:03:44;11.40;99.90
7998;DHT22;4044;49.814;7.828;2023-03-24T03:06:28;11.60;99.90
7998;DHT22;4044;49.814;7.828;2023-03-24T03:08:57;11.70;99.90
7998;DHT22;4044;49.814;7.828;2023-03-24T03:11:24;11.80;99.90
7998;DHT22;4044;49.814;7.828;2023-03-24T03:13:58;11.90;99.90
7998;DHT22;4044;49.814;7.828;2023-03-24T03:16:33;11.90;99.90
7998;DHT22;4044;49.814;7.828;2023-03-24T03:19:06;12.10;99.90
7998;DHT22;4044;49.814;7.828;2023-03-24T03:21:38;12.30;99.90
7998;DHT22;4044;49.814;7.828;2023-03-24T03:24:09;12.30;99.90
7998;DHT22;4044;49.814;7.828;2023-03-24T03:26:36;12.30;99.90
7998;DHT22;4044;49.814;7.828;2023-03-24T03:29:11;12.10;99.90
7998;DHT22;4044;49.814;7.828;2023-03-24T03:31:44;12.00;99.90
7998;DHT22;4044;49.814;7.828;2023-03-24T03:39:53;11.90;99.90
7998;DHT22;4044;49.814;7.828;2023-03-24T03:42:19;11.90;99.90
7998;DHT22;4044;49.814;7.828;2023-03-24T03:44:44;11.80;99.90
7998;DHT22;4044;49.814;7.828;2023-03-24T03:47:11;11.80;99.90
7998;DHT22;4044;49.814;7.828;2023-03-24T03:49:37;11.80;99.90
7998;DHT22;4044;49.814;7.828;2023-03-24T03:52:02;11.80;99.90
7998;DHT22;4044;49.814;7.828;2023-03-24T03:54:30;11.70;99.90
7998;DHT22;4044;49.814;7.828;2023-03-24T03:56:56;11.70;99.90
7998;DHT22;4044;49.814;7.828;2023-03-24T04:05:02;11.80;99.90
7998;DHT22;4044;49.814;7.828;2023-03-24T04:08:16;11.80;99.90
7998;DHT22;4044;49.814;7.828;2023-03-24T04:10:42;11.80;99.90
7998;DHT22;4044;49.814;7.828;2023-03-24T04:13:23;11.90;99.90
7998;DHT22;4044;49.814;7.828;2023-03-24T04:16:10;11.90;99.90
7998;DHT22;4044;49.814;7.828;2023-03-24T04:18:48;11.90;99.90
7998;DHT22;4044;49.814;7.828;2023-03-24T04:24:09;11.90;99.90
7998;DHT22;4044;49.814;7.828;2023-03-24T04:26:55;11.80;99.90
7998;DHT22;4044;49.814;7.828;2023-03-24T04:29:52;11.80;99.90
7998;DHT22;4044;49.814;7.828;2023-03-24T04:32:46;11.80;99.90
7998;DHT22;4044;49.814;7.828;2023-03-24T04:35:32;11.80;99.90
7998;DHT22;4044;49.814;7.828;2023-03-24T04:38:03;11.80;99.90
7998;DHT22;4044;49.814;7.828;2023-03-24T04:40:32;11.80;99.90
7998;DHT22;4044;49.814;7.828;2023-03-24T04:43:03;11.80;99.90
7998;DHT22;4044;49.814;7.828;2023-03-24T04:45:33;11.80;99.90
7998;DHT22;4044;49.814;7.828;2023-03-24T04:48:03;11.80;99.90
7998;DHT22;4044;49.814;7.828;2023-03-24T04:50:31;11.80;99.90
7998;DHT22;4044;49.814;7.828;2023-03-24T04:53:00;11.80;99.90
7998;DHT22;4044;49.814;7.828;2023-03-24T04:55:54;11.80;99.90
7998;DHT22;4044;49.814;7.828;2023-03-24T04:58:21;11.90;99.90
7998;DHT22;4044;49.814;7.828;2023-03-24T05:00:48;11.80;99.90
7998;DHT22;4044;49.814;7.828;2023-03-24T05:03:15;11.80;99.90
7998;DHT22;4044;49.814;7.828;2023-03-24T05:05:43;11.80;99.90
7998;DHT22;4044;49.814;7.828;2023-03-24T05:08:09;11.70;99.90
7998;DHT22;4044;49.814;7.828;2023-03-24T05:10:35;11.80;99.90
7998;DHT22;4044;49.814;7.828;2023-03-24T05:13:02;11.90;99.90
7998;DHT22;4044;49.814;7.828;2023-03-24T05:15:28;12.00;99.90
7998;DHT22;4044;49.814;7.828;2023-03-24T05:17:53;12.00;99.90
7998;DHT22;4044;49.814;7.828;2023-03-24T05:20:19;12.00;99.90
7998;DHT22;4044;49.814;7.828;2023-03-24T05:22:44;12.00;99.90
7998;DHT22;4044;49.814;7.828;2023-03-24T05:25:11;12.00;99.90
7998;DHT22;4044;49.814;7.828;2023-03-24T05:27:37;11.90;99.90
7998;DHT22;4044;49.814;7.828;2023-03-24T05:30:04;11.80;99.90
7998;DHT22;4044;49.814;7.828;2023-03-24T05:32:31;11.80;99.90
7998;DHT22;4044;49.814;7.828;2023-03-24T05:34:57;11.80;99.90
7998;DHT22;4044;49.814;7.828;2023-03-24T05:37:22;11.80;99.90
7998;DHT22;4044;49.814;7.828;2023-03-24T05:39:48;11.80;99.90
7998;DHT22;4044;49.814;7.828;2023-03-24T05:42:15;11.80;99.90
7998;DHT22;4044;49.814;7.828;2023-03-24T05:44:41;11.90;99.90
7998;DHT22;4044;49.814;7.828;2023-03-24T05:47:07;12.00;99.90
7998;DHT22;4044;49.814;7.828;2023-03-24T05:49:33;11.90;99.90
7998;DHT22;4044;49.814;7.828;2023-03-24T05:51:58;11.90;99.90
7998;DHT22;4044;49.814;7.828;2023-03-24T05:54:24;11.90;99.90
7998;DHT22;4044;49.814;7.828;2023-03-24T05:56:50;11.90;99.90
7998;DHT22;4044;49.814;7.828;2023-03-24T05:59:16;12.00;99.90
7998;DHT22;4044;49.814;7.828;2023-03-24T06:01:41;12.10;99.90
7998;DHT22;4044;49.814;7.828;2023-03-24T06:04:07;12.20;99.90
7998;DHT22;4044;49.814;7.828;2023-03-24T06:06:33;12.30;99.90
7998;DHT22;4044;49.814;7.828;2023-03-24T06:08:58;12.30;99.90
7998;DHT22;4044;49.814;7.828;2023-03-24T06:11:27;12.40;99.90
7998;DHT22;4044;49.814;7.828;2023-03-24T06:13:53;12.50;99.90
7998;DHT22;4044;49.814;7.828;2023-03-24T06:16:26;12.50;99.90
7998;DHT22;4044;49.814;7.828;2023-03-24T06:18:52;12.60;99.90
7998;DHT22;4044;49.814;7.828;2023-03-24T06:21:19;12.70;99.90
7998;DHT22;4044;49.814;7.828;2023-03-24T06:23:45;12.70;99.90
7998;DHT22;4044;49.814;7.828;2023-03-24T06:26:12;12.80;99.90
7998;DHT22;4044;49.814;7.828;2023-03-24T06:28:38;12.90;99.90
7998;DHT22;4044;49.814;7.828;2023-03-24T06:31:07;13.00;99.90
7998;DHT22;4044;49.814;7.828;2023-03-24T06:33:42;13.10;99.90
7998;DHT22;4044;49.814;7.828;2023-03-24T06:36:09;13.20;99.90
7998;DHT22;4044;49.814;7.828;2023-03-24T06:38:36;13.30;99.90
7998;DHT22;4044;49.814;7.828;2023-03-24T06:41:02;13.40;99.90
7998;DHT22;4044;49.814;7.828;2023-03-24T06:43:29;13.50;99.90
7998;DHT22;4044;49.814;7.828;2023-03-24T06:45:55;13.50;99.90
7998;DHT22;4044;49.814;7.828;2023-03-24T06:48:20;13.40;99.90
7998;DHT22;4044;49.814;7.828;2023-03-24T06:50:46;13.30;99.90
7998;DHT22;4044;49.814;7.828;2023-03-24T06:53:11;13.40;99.90
7998;DHT22;4044;49.814;7.828;2023-03-24T06:55:37;13.40;99.90
7998;DHT22;4044;49.814;7.828;2023-03-24T06:58:02;13.50;99.90
7998;DHT22;4044;49.814;7.828;2023-03-24T07:00:28;13.50;99.90
7998;DHT22;4044;49.814;7.828;2023-03-24T07:02:54;13.30;99.90
7998;DHT22;4044;49.814;7.828;2023-03-24T07:05:21;13.30;99.90
7998;DHT22;4044;49.814;7.828;2023-03-24T07:07:47;13.40;99.90
7998;DHT22;4044;49.814;7.828;2023-03-24T07:10:13;13.40;99.90
7998;DHT22;4044;49.814;7.828;2023-03-24T07:12:39;13.30;99.90
7998;DHT22;4044;49.814;7.828;2023-03-24T07:15:05;13.30;99.90
7998;DHT22;4044;49.814;7.828;2023-03-24T07:17:32;13.20;99.90
7998;DHT22;4044;49.814;7.828;2023-03-24T07:19:58;13.00;99.90
7998;DHT22;4044;49.814;7.828;2023-03-24T07:22:24;12.90;99.90
7998;DHT22;4044;49.814;7.828;2023-03-24T07:24:49;13.00;99.90
7998;DHT22;4044;49.814;7.828;2023-03-24T07:27:15;12.80;99.90
7998;DHT22;4044;49.814;7.828;2023-03-24T07:29:41;12.80;99.90
7998;DHT22;4044;49.814;7.828;2023-03-24T07:32:06;12.70;99.90
7998;DHT22;4044;49.814;7.828;2023-03-24T07:34:33;12.70;99.90
7998;DHT22;4044;49.814;7.828;2023-03-24T07:36:58;12.60;99.90
7998;DHT22;4044;49.814;7.828;2023-03-24T07:39:24;12.60;99.90
7998;DHT22;4044;49.814;7.828;2023-03-24T07:41:50;12.60;99.90
7998;DHT22;4044;49.814;7.828;2023-03-24T07:44:16;12.50;99.90
7998;DHT22;4044;49.814;7.828;2023-03-24T07:46:41;12.60;99.90
7998;DHT22;4044;49.814;7.828;2023-03-24T07:49:07;12.80;99.90
7998;DHT22;4044;49.814;7.828;2023-03-24T07:51:33;12.80;99.90
7998;DHT22;4044;49.814;7.828;2023-03-24T07:53:58;12.70;99.90
7998;DHT22;4044;49.814;7.828;2023-03-24T07:56:24;12.80;99.90
7998;DHT22;4044;49.814;7.828;2023-03-24T07:58:49;12.90;99.90
7998;DHT22;4044;49.814;7.828;2023-03-24T08:01:15;13.10;99.90
7998;DHT22;4044;49.814;7.828;2023-03-24T08:03:41;13.10;99.90
7998;DHT22;4044;49.814;7.828;2023-03-24T08:06:07;13.10;99.90
7998;DHT22;4044;49.814;7.828;2023-03-24T08:08:34;13.20;99.90
7998;DHT22;4044;49.814;7.828;2023-03-24T08:11:01;13.20;99.90
7998;DHT22;4044;49.814;7.828;2023-03-24T08:13:27;13.20;99.90
7998;DHT22;4044;49.814;7.828;2023-03-24T08:15:52;13.20;99.90
7998;DHT22;4044;49.814;7.828;2023-03-24T08:18:22;13.10;99.90
7998;DHT22;4044;49.814;7.828;2023-03-24T08:20:49;13.10;99.90
7998;DHT22;4044;49.814;7.828;2023-03-24T08:23:15;13.20;99.90
7998;DHT22;4044;49.814;7.828;2023-03-24T08:25:42;13.30;99.90
7998;DHT22;4044;49.814;7.828;2023-03-24T08:28:08;13.30;99.90
7998;DHT22;4044;49.814;7.828;2023-03-24T08:30:33;13.30;99.90
7998;DHT22;4044;49.814;7.828;2023-03-24T08:33:01;13.30;99.90
7998;DHT22;4044;49.814;7.828;2023-03-24T08:35:29;12.70;99.90
7998;DHT22;4044;49.814;7.828;2023-03-24T08:37:56;11.70;99.90
7998;DHT22;4044;49.814;7.828;2023-03-24T08:40:25;11.40;99.90
7998;DHT22;4044;49.814;7.828;2023-03-24T08:42:53;11.10;99.90
7998;DHT22;4044;49.814;7.828;2023-03-24T08:45:20;11.00;99.90
7998;DHT22;4044;49.814;7.828;2023-03-24T08:47:49;10.90;99.90
7998;DHT22;4044;49.814;7.828;2023-03-24T08:50:15;10.90;99.90
7998;DHT22;4044;49.814;7.828;2023-03-24T08:52:41;11.10;99.90
7998;DHT22;4044;49.814;7.828;2023-03-24T08:55:07;11.30;99.90
7998;DHT22;4044;49.814;7.828;2023-03-24T08:57:34;11.50;99.90
7998;DHT22;4044;49.814;7.828;2023-03-24T09:00:00;11.60;99.90
7998;DHT22;4044;49.814;7.828;2023-03-24T09:02:25;11.50;99.90
7998;DHT22;4044;49.814;7.828;2023-03-24T09:04:51;11.30;99.90
7998;DHT22;4044;49.814;7.828;2023-03-24T09:07:19;11.10;99.90
7998;DHT22;4044;49.814;7.828;2023-03-24T09:09:45;10.80;99.90
7998;DHT22;4044;49.814;7.828;2023-03-24T09:12:10;10.70;99.90
7998;DHT22;4044;49.814;7.828;2023-03-24T09:14:36;10.60;99.90
7998;DHT22;4044;49.814;7.828;2023-03-24T09:17:01;10.60;99.90
7998;DHT22;4044;49.814;7.828;2023-03-24T09:19:27;10.50;99.90
7998;DHT22;4044;49.814;7.828;2023-03-24T09:21:52;10.70;99.90
7998;DHT22;4044;49.814;7.828;2023-03-24T09:24:18;10.70;99.90
7998;DHT22;4044;49.814;7.828;2023-03-24T09:26:43;10.80;99.90
7998;DHT22;4044;49.814;7.828;2023-03-24T09:29:09;10.80;99.90
7998;DHT22;4044;49.814;7.828;2023-03-24T09:31:35;10.70;99.90
7998;DHT22;4044;49.814;7.828;2023-03-24T09:34:00;10.70;99.90
7998;DHT22;4044;49.814;7.828;2023-03-24T09:36:27;10.60;99.90
7998;DHT22;4044;49.814;7.828;2023-03-24T09:38:53;10.80;99.90
7998;DHT22;4044;49.814;7.828;2023-03-24T09:41:27;10.70;99.90
7998;DHT22;4044;49.814;7.828;2023-03-24T09:48:55;10.90;99.90
7998;DHT22;4044;49.814;7.828;2023-03-24T09:51:24;11.00;99.90
7998;DHT22;4044;49.814;7.828;2023-03-24T09:53:56;10.90;99.90
7998;DHT22;4044;49.814;7.828;2023-03-24T09:56:25;11.00;99.90
7998;DHT22;4044;49.814;7.828;2023-03-24T10:01:41;11.10;99.90
7998;DHT22;4044;49.814;7.828;2023-03-24T10:04:19;11.40;99.90
7998;DHT22;4044;49.814;7.828;2023-03-24T10:06:46;11.70;99.90
7998;DHT22;4044;49.814;7.828;2023-03-24T10:09:28;11.90;99.90
7998;DHT22;4044;49.814;7.828;2023-03-24T10:21:11;12.00;99.90
7998;DHT22;4044;49.814;7.828;2023-03-24T10:29:31;11.70;99.90
7998;DHT22;4044;49.814;7.828;2023-03-24T10:32:05;11.60;99.90
7998;DHT22;4044;49.814;7.828;2023-03-24T10:34:33;11.80;99.90
7998;DHT22;4044;49.814;7.828;2023-03-24T10:37:02;11.90;99.90
7998;DHT22;4044;49.814;7.828;2023-03-24T10:39:29;12.00;99.90
7998;DHT22;4044;49.814;7.828;2023-03-24T10:41:56;11.80;99.90
7998;DHT22;4044;49.814;7.828;2023-03-24T10:44:23;11.90;99.90
7998;DHT22;4044;49.814;7.828;2023-03-24T10:46:51;12.10;99.90
7998;DHT22;4044;49.814;7.828;2023-03-24T10:49:19;12.10;99.90
7998;DHT22;4044;49.814;7.828;2023-03-24T10:51:53;12.10;99.90
7998;DHT22;4044;49.814;7.828;2023-03-24T10:54:27;12.10;99.90
7998;DHT22;4044;49.814;7.828;2023-03-24T11:02:22;12.50;99.90
7998;DHT22;4044;49.814;7.828;2023-03-24T11:05:02;12.40;99.90
7998;DHT22;4044;49.814;7.828;2023-03-24T11:07:41;12.50;99.90
7998;DHT22;4044;49.814;7.828;2023-03-24T11:12:37;12.40;99.90
7998;DHT22;4044;49.814;7.828;2023-03-24T11:15:13;12.50;99.90
7998;DHT22;4044;49.814;7.828;2023-03-24T11:17:40;12.80;99.90
7998;DHT22;4044;49.814;7.828;2023-03-24T11:20:19;12.80;99.90
7998;DHT22;4044;49.814;7.828;2023-03-24T11:23:05;12.90;99.90
7998;DHT22;4044;49.814;7.828;2023-03-24T11:25:35;13.10;99.90
7998;DHT22;4044;49.814;7.828;2023-03-24T11:28:21;13.10;99.90
7998;DHT22;4044;49.814;7.828;2023-03-24T11:30:52;13.00;99.90
7998;DHT22;4044;49.814;7.828;2023-03-24T11:33:22;13.10;99.90
7998;DHT22;4044;49.814;7.828;2023-03-24T11:35:51;13.30;99.90
7998;DHT22;4044;49.814;7.828;2023-03-24T11:38:28;13.30;99.90
7998;DHT22;4044;49.814;7.828;2023-03-24T11:40:57;13.40;99.90
7998;DHT22;4044;49.814;7.828;2023-03-24T11:43:24;13.30;99.90
7998;DHT22;4044;49.814;7.828;2023-03-24T11:51:22;14.30;99.90
7998;DHT22;4044;49.814;7.828;2023-03-24T11:53:51;14.30;99.90
7998;DHT22;4044;49.814;7.828;2023-03-24T11:56:26;14.50;99.90
7998;DHT22;4044;49.814;7.828;2023-03-24T12:01:34;14.60;99.90
7998;DHT22;4044;49.814;7.828;2023-03-24T12:09:36;14.70;99.90
7998;DHT22;4044;49.814;7.828;2023-03-24T12:12:26;15.10;99.90
7998;DHT22;4044;49.814;7.828;2023-03-24T12:17:44;15.00;99.90
7998;DHT22;4044;49.814;7.828;2023-03-24T12:20:31;15.30;99.90
7998;DHT22;4044;49.814;7.828;2023-03-24T12:23:11;15.60;99.90
7998;DHT22;4044;49.814;7.828;2023-03-24T12:26:07;15.60;99.90
7998;DHT22;4044;49.814;7.828;2023-03-24T12:28:51;16.00;99.90
7998;DHT22;4044;49.814;7.828;2023-03-24T12:31:49;15.90;99.90
7998;DHT22;4044;49.814;7.828;2023-03-24T12:34:28;15.90;99.90
7998;DHT22;4044;49.814;7.828;2023-03-24T12:37:29;16.30;99.90
7998;DHT22;4044;49.814;7.828;2023-03-24T12:43:16;16.50;99.90
7998;DHT22;4044;49.814;7.828;2023-03-24T12:45:54;16.80;99.90
7998;DHT22;4044;49.814;7.828;2023-03-24T12:48:44;16.60;99.90
7998;DHT22;4044;49.814;7.828;2023-03-24T12:51:34;16.70;99.90
7998;DHT22;4044;49.814;7.828;2023-03-24T12:54:26;16.60;99.90
7998;DHT22;4044;49.814;7.828;2023-03-24T12:56:57;16.60;99.90
7998;DHT22;4044;49.814;7.828;2023-03-24T12:59:38;16.30;99.90
7998;DHT22;4044;49.814;7.828;2023-03-24T13:02:28;16.30;99.90
7998;DHT22;4044;49.814;7.828;2023-03-24T13:04:59;16.50;99.90
7998;DHT22;4044;49.814;7.828;2023-03-24T13:07:31;16.90;99.90
7998;DHT22;4044;49.814;7.828;2023-03-24T13:10:06;17.60;99.90
7998;DHT22;4044;49.814;7.828;2023-03-24T13:15:17;17.80;99.90
7998;DHT22;4044;49.814;7.828;2023-03-24T13:20:39;18.70;99.90
7998;DHT22;4044;49.814;7.828;2023-03-24T13:31:57;18.70;99.90
7998;DHT22;4044;49.814;7.828;2023-03-24T13:34:32;19.20;99.90
7998;DHT22;4044;49.814;7.828;2023-03-24T13:37:06;19.50;99.90
7998;DHT22;4044;49.814;7.828;2023-03-24T13:39:35;19.50;99.90
7998;DHT22;4044;49.814;7.828;2023-03-24T13:42:02;19.50;99.90
7998;DHT22;4044;49.814;7.828;2023-03-24T13:44:41;19.40;99.90
7998;DHT22;4044;49.814;7.828;2023-03-24T13:47:17;19.60;99.90
7998;DHT22;4044;49.814;7.828;2023-03-24T13:49:54;19.70;99.90
7998;DHT22;4044;49.814;7.828;2023-03-24T13:52:43;20.20;99.90
7998;DHT22;4044;49.814;7.828;2023-03-24T13:55:14;19.40;99.90
7998;DHT22;4044;49.814;7.828;2023-03-24T13:57:41;19.40;99.90
7998;DHT22;4044;49.814;7.828;2023-03-24T14:00:18;19.20;99.90
7998;DHT22;4044;49.814;7.828;2023-03-24T14:02:50;19.60;99.90
7998;DHT22;4044;49.814;7.828;2023-03-24T14:05:53;19.70;99.90
7998;DHT22;4044;49.814;7.828;2023-03-24T14:19:41;21.00;99.90
7998;DHT22;4044;49.814;7.828;2023-03-24T14:22:32;19.80;99.90
7998;DHT22;4044;49.814;7.828;2023-03-24T14:27:37;19.90;99.80
7998;DHT22;4044;49.814;7.828;2023-03-24T14:32:58;19.50;95.40
7998;DHT22;4044;49.814;7.828;2023-03-24T14:35:38;19.50;94.40
7998;DHT22;4044;49.814;7.828;2023-03-24T14:40:49;19.00;89.20
7998;DHT22;4044;49.814;7.828;2023-03-24T14:43:26;18.80;88.20
7998;DHT22;4044;49.814;7.828;2023-03-24T14:46:02;18.50;88.10
7998;DHT22;4044;49.814;7.828;2023-03-24T14:48:58;18.30;86.90
7998;DHT22;4044;49.814;7.828;2023-03-24T14:54:29;18.20;85.30
7998;DHT22;4044;49.814;7.828;2023-03-24T14:56:57;18.80;85.00
7998;DHT22;4044;49.814;7.828;2023-03-24T15:00:06;19.30;85.00
7998;DHT22;4044;49.814;7.828;2023-03-24T15:02:38;19.40;85.80
7998;DHT22;4044;49.814;7.828;2023-03-24T15:05:28;19.40;82.80
7998;DHT22;4044;49.814;7.828;2023-03-24T15:10:58;19.50;79.30
7998;DHT22;4044;49.814;7.828;2023-03-24T15:16:31;19.90;78.40
7998;DHT22;4044;49.814;7.828;2023-03-24T15:21:36;19.60;76.10
7998;DHT22;4044;49.814;7.828;2023-03-24T15:26:51;19.60;75.50
7998;DHT22;4044;49.814;7.828;2023-03-24T15:29:17;19.70;73.30
7998;DHT22;4044;49.814;7.828;2023-03-24T15:31:43;20.20;72.70
7998;DHT22;4044;49.814;7.828;2023-03-24T15:34:27;20.40;72.80
7998;DHT22;4044;49.814;7.828;2023-03-24T15:36:57;20.80;74.40
7998;DHT22;4044;49.814;7.828;2023-03-24T15:39:41;20.90;71.10
7998;DHT22;4044;49.814;7.828;2023-03-24T15:42:13;21.10;70.10
7998;DHT22;4044;49.814;7.828;2023-03-24T15:44:40;21.20;71.00
7998;DHT22;4044;49.814;7.828;2023-03-24T15:47:27;21.10;69.10
7998;DHT22;4044;49.814;7.828;2023-03-24T15:49:56;21.30;70.10
7998;DHT22;4044;49.814;7.828;2023-03-24T15:52:33;21.40;70.80
7998;DHT22;4044;49.814;7.828;2023-03-24T15:55:27;21.70;70.90
7998;DHT22;4044;49.814;7.828;2023-03-24T15:57:55;21.40;70.10
7998;DHT22;4044;49.814;7.828;2023-03-24T16:00:36;21.40;70.20
7998;DHT22;4044;49.814;7.828;2023-03-24T16:03:04;21.70;70.60
7998;DHT22;4044;49.814;7.828;2023-03-24T16:05:31;21.90;70.20
7998;DHT22;4044;49.814;7.828;2023-03-24T16:08:05;21.90;67.70
7998;DHT22;4044;49.814;7.828;2023-03-24T16:10:34;21.50;67.00
7998;DHT22;4044;49.814;7.828;2023-03-24T16:13:20;21.50;67.50
7998;DHT22;4044;49.814;7.828;2023-03-24T16:18:33;21.70;68.80
7998;DHT22;4044;49.814;7.828;2023-03-24T16:21:00;21.40;70.50
7998;DHT22;4044;49.814;7.828;2023-03-24T16:23:26;21.20;69.40
7998;DHT22;4044;49.814;7.828;2023-03-24T16:25:52;20.90;67.30
7998;DHT22;4044;49.814;7.828;2023-03-24T16:28:19;20.80;69.30
7998;DHT22;4044;49.814;7.828;2023-03-24T16:30:50;20.80;71.00
7998;DHT22;4044;49.814;7.828;2023-03-24T16:33:17;20.60;69.70
7998;DHT22;4044;49.814;7.828;2023-03-24T16:35:45;20.50;70.00
7998;DHT22;4044;49.814;7.828;2023-03-24T16:38:14;20.60;72.30
7998;DHT22;4044;49.814;7.828;2023-03-24T16:40:47;20.40;70.80
7998;DHT22;4044;49.814;7.828;2023-03-24T16:43:13;20.40;71.80
7998;DHT22;4044;49.814;7.828;2023-03-24T16:45:40;20.10;72.80
7998;DHT22;4044;49.814;7.828;2023-03-24T16:48:09;20.00;72.90
7998;DHT22;4044;49.814;7.828;2023-03-24T16:50:42;19.70;74.40
7998;DHT22;4044;49.814;7.828;2023-03-24T16:53:08;19.00;73.90
7998;DHT22;4044;49.814;7.828;2023-03-24T16:55:35;18.50;74.20
7998;DHT22;4044;49.814;7.828;2023-03-24T16:58:01;17.80;75.20
7998;DHT22;4044;49.814;7.828;2023-03-24T17:00:26;17.40;77.10
7998;DHT22;4044;49.814;7.828;2023-03-24T17:02:54;17.20;77.10
7998;DHT22;4044;49.814;7.828;2023-03-24T17:05:22;16.90;78.50
7998;DHT22;4044;49.814;7.828;2023-03-24T17:07:49;16.70;80.00
7998;DHT22;4044;49.814;7.828;2023-03-24T17:10:16;16.50;78.70
7998;DHT22;4044;49.814;7.828;2023-03-24T17:12:42;16.40;80.70
7998;DHT22;4044;49.814;7.828;2023-03-24T17:15:34;16.20;80.90
7998;DHT22;4044;49.814;7.828;2023-03-24T17:18:00;15.90;81.20
7998;DHT22;4044;49.814;7.828;2023-03-24T17:20:25;15.80;82.80
7998;DHT22;4044;49.814;7.828;2023-03-24T17:22:54;15.60;82.60
7998;DHT22;4044;49.814;7.828;2023-03-24T17:25:21;15.50;83.50
7998;DHT22;4044;49.814;7.828;2023-03-24T17:27:47;15.30;83.80
7998;DHT22;4044;49.814;7.828;2023-03-24T17:30:18;15.10;84.40
7998;DHT22;4044;49.814;7.828;2023-03-24T17:32:45;14.90;85.50
7998;DHT22;4044;49.814;7.828;2023-03-24T17:35:17;14.70;85.10
7998;DHT22;4044;49.814;7.828;2023-03-24T17:37:43;14.60;85.50
7998;DHT22;4044;49.814;7.828;2023-03-24T17:40:10;14.50;86.20
7998;DHT22;4044;49.814;7.828;2023-03-24T17:42:38;14.30;86.10
7998;DHT22;4044;49.814;7.828;2023-03-24T17:45:05;14.20;86.30
7998;DHT22;4044;49.814;7.828;2023-03-24T17:47:32;14.10;87.50
7998;DHT22;4044;49.814;7.828;2023-03-24T17:49:57;14.10;87.80
7998;DHT22;4044;49.814;7.828;2023-03-24T17:52:23;14.00;87.30
7998;DHT22;4044;49.814;7.828;2023-03-24T17:54:48;14.00;87.40
7998;DHT22;4044;49.814;7.828;2023-03-24T17:57:14;13.90;88.50
7998;DHT22;4044;49.814;7.828;2023-03-24T17:59:40;13.80;88.40
7998;DHT22;4044;49.814;7.828;2023-03-24T18:02:06;13.70;89.20
7998;DHT22;4044;49.814;7.828;2023-03-24T18:04:33;13.60;89.20
7998;DHT22;4044;49.814;7.828;2023-03-24T18:06:59;13.50;89.90
7998;DHT22;4044;49.814;7.828;2023-03-24T18:09:26;13.40;90.20
7998;DHT22;4044;49.814;7.828;2023-03-24T18:11:52;13.30;90.10
7998;DHT22;4044;49.814;7.828;2023-03-24T18:14:18;13.20;90.00
7998;DHT22;4044;49.814;7.828;2023-03-24T18:16:43;13.20;90.20
7998;DHT22;4044;49.814;7.828;2023-03-24T18:19:09;13.10;90.10
7998;DHT22;4044;49.814;7.828;2023-03-24T18:21:34;13.10;90.30
7998;DHT22;4044;49.814;7.828;2023-03-24T18:24:00;13.00;90.10
7998;DHT22;4044;49.814;7.828;2023-03-24T18:26:25;13.00;90.10
7998;DHT22;4044;49.814;7.828;2023-03-24T18:28:51;13.00;90.50
7998;DHT22;4044;49.814;7.828;2023-03-24T18:31:19;12.90;90.40
7998;DHT22;4044;49.814;7.828;2023-03-24T18:33:46;13.10;90.60
7998;DHT22;4044;49.814;7.828;2023-03-24T18:36:14;13.10;90.90
7998;DHT22;4044;49.814;7.828;2023-03-24T18:38:46;13.00;90.80
7998;DHT22;4044;49.814;7.828;2023-03-24T18:41:12;12.90;91.20
7998;DHT22;4044;49.814;7.828;2023-03-24T18:43:39;12.90;91.10
7998;DHT22;4044;49.814;7.828;2023-03-24T18:46:11;12.90;91.30
7998;DHT22;4044;49.814;7.828;2023-03-24T18:48:38;13.00;90.70